sensor_id;sensor_type;location;lat;lon;timestamp;temperature;humidity
40822;DHT22;26542;50.836;5.356;2023-03-23T00:00:12;13.70;99.90
40822;DHT22;26542;50.836;5.356;2023-03-23T00:02:38;13.70;99.90
40822;DHT22;26542;50.836;5.356;2023-03-23T00:05:04;13.70;99.90
40822;DHT22;26542;50.836;5.356;2023-03-23T00:07:36;13.70;99.90
40822;DHT22;26542;50.836;5.356;2023-03-23T00:10:02;13.60;99.90
40822;DHT22;26542;50.836;5.356;2023-03-23T00:12:31;13.60;99.90
40822;DHT22;26542;50.836;5.356;2023-03-23T00:15:00;13.60;99.90
40822;DHT22;26542;50.836;5.356;2023-03-23T00:17:27;13.60;99.90
40822;DHT22;26542;50.836;5.356;2023-03-23T00:19:58;13.50;99.90
40822;DHT22;26542;50.836;5.356;2023-03-23T00:22:27;13.60;99.90
40822;DHT22;26542;50.836;5.356;2023-03-23T00:24:53;13.50;99.90
40822;DHT22;26542;50.836;5.356;2023-03-23T00:27:20;13.50;99.90
40822;DHT22;26542;50.836;5.356;2023-03-23T00:29:50;13.50;99.90
40822;DHT22;26542;50.836;5.356;2023-03-23T00:32:20;13.60;99.90
40822;DHT22;26542;50.836;5.356;2023-03-23T00:34:46;13.60;99.90
40822;DHT22;26542;50.836;5.356;2023-03-23T00:37:14;13.60;99.90
40822;DHT22;26542;50.836;5.356;2023-03-23T00:39:42;13.60;99.90
40822;DHT22;26542;50.836;5.356;2023-03-23T00:42:14;13.50;99.90
40822;DHT22;26542;50.836;5.356;2023-03-23T00:44:40;13.50;99.90
40822;DHT22;26542;50.836;5.356;2023-03-23T00:47:06;13.50;99.90
40822;DHT22;26542;50.836;5.356;2023-03-23T00:49:37;13.50;99.90
40822;DHT22;26542;50.836;5.356;2023-03-23T00:52:06;13.50;99.90
40822;DHT22;26542;50.836;5.356;2023-03-23T00:54:37;13.50;99.90
40822;DHT22;26542;50.836;5.356;2023-03-23T00:57:03;13.50;99.90
40822;DHT22;26542;50.836;5.356;2023-03-23T00:59:29;13.60;99.90
40822;DHT22;26542;50.836;5.356;2023-03-23T01:02:14;13.60;99.90
40822;DHT22;26542;50.836;5.356;2023-03-23T01:04:43;13.60;99.90
40822;DHT22;26542;50.836;5.356;2023-03-23T01:07:10;13.60;99.90
40822;DHT22;26542;50.836;5.356;2023-03-23T01:09:39;13.60;99.90
40822;DHT22;26542;50.836;5.356;2023-03-23T01:12:10;13.60;99.90
40822;DHT22;26542;50.836;5.356;2023-03-23T01:14:36;13.60;99.90
40822;DHT22;26542;50.836;5.356;2023-03-23T01:17:04;13.60;99.90
40822;DHT22;26542;50.836;5.356;2023-03-23T01:19:32;13.50;99.90
40822;DHT22;26542;50.836;5.356;2023-03-23T01:21:57;13.60;99.90
40822;DHT22;26542;50.836;5.356;2023-03-23T01:24:27;13.60;99.90
40822;DHT22;26542;50.836;5.356;2023-03-23T01:26:53;13.50;99.90
40822;DHT22;26542;50.836;5.356;2023-03-23T01:29:23;13.50;99.90
40822;DHT22;26542;50.836;5.356;2023-03-23T01:31:49;13.50;99.90
40822;DHT22;26542;50.836;5.356;2023-03-23T01:34:14;13.40;99.90
40822;DHT22;26542;50.836;5.356;2023-03-23T01:36:40;13.40;99.90
40822;DHT22;26542;50.836;5.356;2023-03-23T01:39:06;13.30;99.90
40822;DHT22;26542;50.836;5.356;2023-03-23T01:41:35;13.30;99.90
40822;DHT22;26542;50.836;5.356;2023-03-23T01:46:54;13.30;99.90
40822;DHT22;26542;50.836;5.356;2023-03-23T01:49:45;13.30;99.90
40822;DHT22;26542;50.836;5.356;2023-03-23T01:52:20;13.30;99.90
40822;DHT22;26542;50.836;5.356;2023-03-23T01:54:50;13.20;99.90
40822;DHT22;26542;50.836;5.356;2023-03-23T01:57:19;13.30;99.90
40822;DHT22;26542;50.836;5.356;2023-03-23T01:59:50;13.30;99.90
40822;DHT22;26542;50.836;5.356;2023-03-23T02:02:17;13.30;99.90
40822;DHT22;26542;50.836;5.356;2023-03-23T02:04:46;13.30;99.90
40822;DHT22;26542;50.836;5.356;2023-03-23T02:07:16;13.30;99.90
40822;DHT22;26542;50.836;5.356;2023-03-23T02:09:42;13.30;99.90
40822;DHT22;26542;50.836;5.356;2023-03-23T02:12:08;13.20;99.90
40822;DHT22;26542;50.836;5.356;2023-03-23T02:14:34;13.30;99.90
40822;DHT22;26542;50.836;5.356;2023-03-23T02:19:41;13.30;99.90
40822;DHT22;26542;50.836;5.356;2023-03-23T02:25:06;13.40;99.90
40822;DHT22;26542;50.836;5.356;2023-03-23T02:30:13;13.40;99.90
40822;DHT22;26542;50.836;5.356;2023-03-23T02:41:19;13.40;99.90
40822;DHT22;26542;50.836;5.356;2023-03-23T02:43:46;13.40;99.90
40822;DHT22;26542;50.836;5.356;2023-03-23T02:46:14;13.40;99.90
40822;DHT22;26542;50.836;5.356;2023-03-23T02:48:42;13.40;99.90
40822;DHT22;26542;50.836;5.356;2023-03-23T02:51:10;13.40;99.90
40822;DHT22;26542;50.836;5.356;2023-03-23T02:53:40;13.30;99.90
40822;DHT22;26542;50.836;5.356;2023-03-23T02:56:08;13.30;99.90
40822;DHT22;26542;50.836;5.356;2023-03-23T02:58:35;13.30;99.90
40822;DHT22;26542;50.836;5.356;2023-03-23T03:03:54;13.40;99.90
40822;DHT22;26542;50.836;5.356;2023-03-23T03:09:13;13.40;99.90
40822;DHT22;26542;50.836;5.356;2023-03-23T03:11:42;13.30;99.90
40822;DHT22;26542;50.836;5.356;2023-03-23T03:14:19;13.30;99.90
40822;DHT22;26542;50.836;5.356;2023-03-23T03:16:53;13.30;99.90
40822;DHT22;26542;50.836;5.356;2023-03-23T03:19:29;13.30;99.90
40822;DHT22;26542;50.836;5.356;2023-03-23T03:21:59;13.30;99.90
40822;DHT22;26542;50.836;5.356;2023-03-23T03:24:28;13.40;99.90
40822;DHT22;26542;50.836;5.356;2023-03-23T03:26:57;13.40;99.90
40822;DHT22;26542;50.836;5.356;2023-03-23T03:29:32;13.40;99.90
40822;DHT22;26542;50.836;5.356;2023-03-23T03:32:02;13.40;99.90
40822;DHT22;26542;50.836;5.356;2023-03-23T03:34:33;13.50;99.90
40822;DHT22;26542;50.836;5.356;2023-03-23T03:37:04;13.50;99.90
40822;DHT22;26542;50.836;5.356;2023-03-23T03:39:33;13.50;99.90
40822;DHT22;26542;50.836;5.356;2023-03-23T03:41:59;13.50;99.90
40822;DHT22;26542;50.836;5.356;2023-03-23T03:44:25;13.40;99.90
40822;DHT22;26542;50.836;5.356;2023-03-23T03:46:51;13.30;99.90
40822;DHT22;26542;50.836;5.356;2023-03-23T03:49:17;13.30;99.90
40822;DHT22;26542;50.836;5.356;2023-03-23T03:51:43;13.30;99.90
40822;DHT22;26542;50.836;5.356;2023-03-23T03:54:09;13.30;99.90
40822;DHT22;26542;50.836;5.356;2023-03-23T03:56:36;13.30;99.90
40822;DHT22;26542;50.836;5.356;2023-03-23T03:59:06;13.30;99.90
40822;DHT22;26542;50.836;5.356;2023-03-23T04:01:34;13.20;99.90
40822;DHT22;26542;50.836;5.356;2023-03-23T04:04:00;13.30;99.90
40822;DHT22;26542;50.836;5.356;2023-03-23T04:06:28;13.30;99.90
40822;DHT22;26542;50.836;5.356;2023-03-23T04:08:55;13.30;99.90
40822;DHT22;26542;50.836;5.356;2023-03-23T04:11:21;13.30;99.90
40822;DHT22;26542;50.836;5.356;2023-03-23T04:13:47;13.30;99.90
40822;DHT22;26542;50.836;5.356;2023-03-23T04:16:13;13.30;99.90
40822;DHT22;26542;50.836;5.356;2023-03-23T04:18:41;13.30;99.90
40822;DHT22;26542;50.836;5.356;2023-03-23T04:21:09;13.40;99.90
40822;DHT22;26542;50.836;5.356;2023-03-23T04:23:37;13.30;99.90
40822;DHT22;26542;50.836;5.356;2023-03-23T04:26:04;13.30;99.90
40822;DHT22;26542;50.836;5.356;2023-03-23T04:28:30;13.20;99.90
40822;DHT22;26542;50.836;5.356;2023-03-23T04:30:59;13.30;99.90
40822;DHT22;26542;50.836;5.356;2023-03-23T04:33:26;13.30;99.90
40822;DHT22;26542;50.836;5.356;2023-03-23T04:35:54;13.30;99.90
40822;DHT22;26542;50.836;5.356;2023-03-23T04:38:23;13.20;99.90
40822;DHT22;26542;50.836;5.356;2023-03-23T04:40:51;13.20;99.90
40822;DHT22;26542;50.836;5.356;2023-03-23T04:43:22;13.20;99.90
40822;DHT22;26542;50.836;5.356;2023-03-23T04:45:53;13.20;99.90
40822;DHT22;26542;50.836;5.356;2023-03-23T04:48:23;13.20;99.90
40822;DHT22;26542;50.836;5.356;2023-03-23T04:50:52;13.20;99.90
40822;DHT22;26542;50.836;5.356;2023-03-23T04:53:26;13.20;99.90
40822;DHT22;26542;50.836;5.356;2023-03-23T04:55:51;13.20;99.90
40822;DHT22;26542;50.836;5.356;2023-03-23T04:58:17;13.20;99.90
40822;DHT22;26542;50.836;5.356;2023-03-23T05:00:43;13.10;99.90
40822;DHT22;26542;50.836;5.356;2023-03-23T05:03:18;13.10;99.90
40822;DHT22;26542;50.836;5.356;2023-03-23T05:05:45;13.10;99.90
40822;DHT22;26542;50.836;5.356;2023-03-23T05:08:18;13.10;99.90
40822;DHT22;26542;50.836;5.356;2023-03-23T05:10:55;13.10;99.90
40822;DHT22;26542;50.836;5.356;2023-03-23T05:13:21;13.10;99.90
40822;DHT22;26542;50.836;5.356;2023-03-23T05:15:47;13.00;99.90
40822;DHT22;26542;50.836;5.356;2023-03-23T05:18:13;13.10;99.90
40822;DHT22;26542;50.836;5.356;2023-03-23T05:20:40;13.10;99.90
40822;DHT22;26542;50.836;5.356;2023-03-23T05:23:13;13.10;99.90
40822;DHT22;26542;50.836;5.356;2023-03-23T05:25:42;13.10;99.90
40822;DHT22;26542;50.836;5.356;2023-03-23T05:28:09;13.00;99.90
40822;DHT22;26542;50.836;5.356;2023-03-23T05:30:36;13.00;99.90
40822;DHT22;26542;50.836;5.356;2023-03-23T05:33:03;13.00;99.90
40822;DHT22;26542;50.836;5.356;2023-03-23T05:35:30;13.00;99.90
40822;DHT22;26542;50.836;5.356;2023-03-23T05:41:21;13.10;99.90
40822;DHT22;26542;50.836;5.356;2023-03-23T05:44:08;13.00;99.90
40822;DHT22;26542;50.836;5.356;2023-03-23T05:46:39;13.00;99.90
40822;DHT22;26542;50.836;5.356;2023-03-23T05:49:08;13.00;99.90
40822;DHT22;26542;50.836;5.356;2023-03-23T05:51:37;13.00;99.90
40822;DHT22;26542;50.836;5.356;2023-03-23T05:54:03;13.00;99.90
40822;DHT22;26542;50.836;5.356;2023-03-23T05:56:29;13.00;99.90
40822;DHT22;26542;50.836;5.356;2023-03-23T05:58:57;12.90;99.90
40822;DHT22;26542;50.836;5.356;2023-03-23T06:01:23;12.90;99.90
40822;DHT22;26542;50.836;5.356;2023-03-23T06:03:49;13.00;99.90
40822;DHT22;26542;50.836;5.356;2023-03-23T06:06:29;13.00;99.90
40822;DHT22;26542;50.836;5.356;2023-03-23T06:08:58;13.00;99.90
40822;DHT22;26542;50.836;5.356;2023-03-23T06:11:25;12.90;99.90
40822;DHT22;26542;50.836;5.356;2023-03-23T06:13:51;12.90;99.90
40822;DHT22;26542;50.836;5.356;2023-03-23T06:16:20;12.90;99.90
40822;DHT22;26542;50.836;5.356;2023-03-23T06:18:48;12.90;99.90
40822;DHT22;26542;50.836;5.356;2023-03-23T06:21:17;12.90;99.90
40822;DHT22;26542;50.836;5.356;2023-03-23T06:23:45;12.90;99.90
40822;DHT22;26542;50.836;5.356;2023-03-23T06:26:13;12.90;99.90
40822;DHT22;26542;50.836;5.356;2023-03-23T06:28:39;12.90;99.90
40822;DHT22;26542;50.836;5.356;2023-03-23T06:31:06;12.90;99.90
40822;DHT22;26542;50.836;5.356;2023-03-23T06:33:36;13.00;99.90
40822;DHT22;26542;50.836;5.356;2023-03-23T06:36:04;13.00;99.90
40822;DHT22;26542;50.836;5.356;2023-03-23T06:38:32;13.10;99.90
40822;DHT22;26542;50.836;5.356;2023-03-23T06:40:58;13.00;99.90
40822;DHT22;26542;50.836;5.356;2023-03-23T06:43:23;13.00;99.90
40822;DHT22;26542;50.836;5.356;2023-03-23T06:45:52;13.00;99.90
40822;DHT22;26542;50.836;5.356;2023-03-23T06:48:20;13.00;99.90
40822;DHT22;26542;50.836;5.356;2023-03-23T06:50:46;13.10;99.90
40822;DHT22;26542;50.836;5.356;2023-03-23T06:53:12;13.10;99.90
40822;DHT22;26542;50.836;5.356;2023-03-23T06:55:43;13.10;99.90
40822;DHT22;26542;50.836;5.356;2023-03-23T06:58:09;13.10;99.90
40822;DHT22;26542;50.836;5.356;2023-03-23T07:00:35;13.10;99.90
40822;DHT22;26542;50.836;5.356;2023-03-23T07:03:01;13.10;99.90
40822;DHT22;26542;50.836;5.356;2023-03-23T07:05:28;13.10;99.90
40822;DHT22;26542;50.836;5.356;2023-03-23T07:07:54;13.10;99.90
40822;DHT22;26542;50.836;5.356;2023-03-23T07:10:19;13.10;99.90
40822;DHT22;26542;50.836;5.356;2023-03-23T07:12:45;13.20;99.90
40822;DHT22;26542;50.836;5.356;2023-03-23T07:15:13;13.10;99.90
40822;DHT22;26542;50.836;5.356;2023-03-23T07:17:39;13.20;99.90
40822;DHT22;26542;50.836;5.356;2023-03-23T07:20:06;13.10;99.90
40822;DHT22;26542;50.836;5.356;2023-03-23T07:22:33;13.20;99.90
40822;DHT22;26542;50.836;5.356;2023-03-23T07:25:01;13.20;99.90
40822;DHT22;26542;50.836;5.356;2023-03-23T07:27:27;13.20;99.90
40822;DHT22;26542;50.836;5.356;2023-03-23T07:29:53;13.20;99.90
40822;DHT22;26542;50.836;5.356;2023-03-23T07:32:21;13.30;99.90
40822;DHT22;26542;50.836;5.356;2023-03-23T07:34:46;13.30;99.90
40822;DHT22;26542;50.836;5.356;2023-03-23T07:37:12;13.40;99.90
40822;DHT22;26542;50.836;5.356;2023-03-23T07:39:38;13.30;99.90
40822;DHT22;26542;50.836;5.356;2023-03-23T07:42:05;13.30;99.90
40822;DHT22;26542;50.836;5.356;2023-03-23T07:44:32;13.30;99.90
40822;DHT22;26542;50.836;5.356;2023-03-23T07:46:58;13.40;99.90
40822;DHT22;26542;50.836;5.356;2023-03-23T07:49:24;13.40;99.90
40822;DHT22;26542;50.836;5.356;2023-03-23T07:51:52;13.50;99.90
40822;DHT22;26542;50.836;5.356;2023-03-23T07:54:21;13.50;99.90
40822;DHT22;26542;50.836;5.356;2023-03-23T07:56:49;13.50;99.90
40822;DHT22;26542;50.836;5.356;2023-03-23T07:59:15;13.40;99.90
40822;DHT22;26542;50.836;5.356;2023-03-23T08:01:40;13.50;99.90
40822;DHT22;26542;50.836;5.356;2023-03-23T08:04:06;13.50;99.90
40822;DHT22;26542;50.836;5.356;2023-03-23T08:06:33;13.50;99.90
40822;DHT22;26542;50.836;5.356;2023-03-23T08:09:00;13.50;99.90
40822;DHT22;26542;50.836;5.356;2023-03-23T08:11:26;13.50;99.90
40822;DHT22;26542;50.836;5.356;2023-03-23T08:13:52;13.50;99.90
40822;DHT22;26542;50.836;5.356;2023-03-23T08:16:18;13.50;99.90
40822;DHT22;26542;50.836;5.356;2023-03-23T08:18:46;13.40;99.90
40822;DHT22;26542;50.836;5.356;2023-03-23T08:21:12;13.40;99.90
40822;DHT22;26542;50.836;5.356;2023-03-23T08:23:40;13.40;99.90
40822;DHT22;26542;50.836;5.356;2023-03-23T08:26:09;13.50;99.90
40822;DHT22;26542;50.836;5.356;2023-03-23T08:28:37;13.40;99.90
40822;DHT22;26542;50.836;5.356;2023-03-23T08:31:11;13.30;99.90
40822;DHT22;26542;50.836;5.356;2023-03-23T08:33:38;13.30;99.90
40822;DHT22;26542;50.836;5.356;2023-03-23T08:36:05;13.30;99.90
40822;DHT22;26542;50.836;5.356;2023-03-23T08:38:36;13.20;99.90
40822;DHT22;26542;50.836;5.356;2023-03-23T08:41:04;13.30;99.90
40822;DHT22;26542;50.836;5.356;2023-03-23T08:43:33;13.30;99.90
40822;DHT22;26542;50.836;5.356;2023-03-23T08:45:59;13.30;99.90
40822;DHT22;26542;50.836;5.356;2023-03-23T08:48:25;13.40;99.90
40822;DHT22;26542;50.836;5.356;2023-03-23T08:50:51;13.40;99.90
40822;DHT22;26542;50.836;5.356;2023-03-23T08:53:18;13.40;99.90
40822;DHT22;26542;50.836;5.356;2023-03-23T08:55:46;13.30;99.90
40822;DHT22;26542;50.836;5.356;2023-03-23T08:58:12;13.30;99.90
40822;DHT22;26542;50.836;5.356;2023-03-23T09:00:38;13.30;99.90
40822;DHT22;26542;50.836;5.356;2023-03-23T09:03:04;13.40;99.90
40822;DHT22;26542;50.836;5.356;2023-03-23T09:05:30;13.50;99.90
40822;DHT22;26542;50.836;5.356;2023-03-23T09:07:57;13.50;99.90
40822;DHT22;26542;50.836;5.356;2023-03-23T09:10:29;13.50;99.90
40822;DHT22;26542;50.836;5.356;2023-03-23T09:12:56;13.40;99.90
40822;DHT22;26542;50.836;5.356;2023-03-23T09:15:23;13.40;99.90
40822;DHT22;26542;50.836;5.356;2023-03-23T09:17:52;13.40;99.90
40822;DHT22;26542;50.836;5.356;2023-03-23T09:20:24;13.50;99.90
40822;DHT22;26542;50.836;5.356;2023-03-23T09:22:51;13.40;99.90
40822;DHT22;26542;50.836;5.356;2023-03-23T09:25:19;13.30;99.90
40822;DHT22;26542;50.836;5.356;2023-03-23T09:27:56;13.00;99.90
40822;DHT22;26542;50.836;5.356;2023-03-23T09:30:27;12.80;99.90
40822;DHT22;26542;50.836;5.356;2023-03-23T09:32:54;12.60;99.90
40822;DHT22;26542;50.836;5.356;2023-03-23T09:35:21;12.40;99.90
40822;DHT22;26542;50.836;5.356;2023-03-23T09:37:48;12.30;99.90
40822;DHT22;26542;50.836;5.356;2023-03-23T09:40:18;12.20;99.90
40822;DHT22;26542;50.836;5.356;2023-03-23T09:50:40;12.00;99.90
40822;DHT22;26542;50.836;5.356;2023-03-23T09:53:24;11.90;99.90
40822;DHT22;26542;50.836;5.356;2023-03-23T09:55:52;11.90;99.90
40822;DHT22;26542;50.836;5.356;2023-03-23T09:58:20;11.80;99.90
40822;DHT22;26542;50.836;5.356;2023-03-23T10:00:58;11.90;99.90
40822;DHT22;26542;50.836;5.356;2023-03-23T10:03:31;12.10;99.90
40822;DHT22;26542;50.836;5.356;2023-03-23T10:05:58;12.00;99.90
40822;DHT22;26542;50.836;5.356;2023-03-23T10:08:26;12.20;99.90
40822;DHT22;26542;50.836;5.356;2023-03-23T10:14:05;12.20;99.90
40822;DHT22;26542;50.836;5.356;2023-03-23T10:16:37;12.40;99.90
40822;DHT22;26542;50.836;5.356;2023-03-23T10:21:52;12.30;99.90
40822;DHT22;26542;50.836;5.356;2023-03-23T10:24:22;12.40;99.90
40822;DHT22;26542;50.836;5.356;2023-03-23T10:30:13;12.30;99.90
40822;DHT22;26542;50.836;5.356;2023-03-23T10:32:41;12.20;99.90
40822;DHT22;26542;50.836;5.356;2023-03-23T10:35:13;12.20;99.90
40822;DHT22;26542;50.836;5.356;2023-03-23T10:37:51;12.20;99.90
40822;DHT22;26542;50.836;5.356;2023-03-23T10:40:22;12.10;99.90
40822;DHT22;26542;50.836;5.356;2023-03-23T10:42:49;12.10;99.90
40822;DHT22;26542;50.836;5.356;2023-03-23T10:45:30;12.00;99.90
40822;DHT22;26542;50.836;5.356;2023-03-23T10:48:37;12.00;99.90
40822;DHT22;26542;50.836;5.356;2023-03-23T10:51:06;12.10;99.90
40822;DHT22;26542;50.836;5.356;2023-03-23T10:53:42;12.20;99.90
40822;DHT22;26542;50.836;5.356;2023-03-23T10:56:27;12.20;99.90
40822;DHT22;26542;50.836;5.356;2023-03-23T10:59:14;12.30;99.90
40822;DHT22;26542;50.836;5.356;2023-03-23T11:01:52;12.30;99.90
40822;DHT22;26542;50.836;5.356;2023-03-23T11:04:20;12.30;99.90
40822;DHT22;26542;50.836;5.356;2023-03-23T11:06:53;12.40;99.90
40822;DHT22;26542;50.836;5.356;2023-03-23T11:09:22;12.50;99.90
40822;DHT22;26542;50.836;5.356;2023-03-23T11:11:58;12.50;99.90
40822;DHT22;26542;50.836;5.356;2023-03-23T11:14:35;12.60;99.90
40822;DHT22;26542;50.836;5.356;2023-03-23T11:17:18;12.70;99.90
40822;DHT22;26542;50.836;5.356;2023-03-23T11:19:47;12.80;99.90
40822;DHT22;26542;50.836;5.356;2023-03-23T11:24:54;12.60;99.90
40822;DHT22;26542;50.836;5.356;2023-03-23T11:27:21;12.60;99.90
40822;DHT22;26542;50.836;5.356;2023-03-23T11:30:00;12.80;99.90
40822;DHT22;26542;50.836;5.356;2023-03-23T11:32:30;12.90;99.90
40822;DHT22;26542;50.836;5.356;2023-03-23T11:35:02;13.20;99.90
40822;DHT22;26542;50.836;5.356;2023-03-23T11:37:40;13.20;99.90
40822;DHT22;26542;50.836;5.356;2023-03-23T11:42:43;13.30;99.90
40822;DHT22;26542;50.836;5.356;2023-03-23T11:45:39;13.30;99.90
40822;DHT22;26542;50.836;5.356;2023-03-23T11:48:26;13.30;99.90
40822;DHT22;26542;50.836;5.356;2023-03-23T11:51:06;13.50;99.90
40822;DHT22;26542;50.836;5.356;2023-03-23T11:56:26;13.60;99.90
40822;DHT22;26542;50.836;5.356;2023-03-23T11:58:53;13.80;99.90
40822;DHT22;26542;50.836;5.356;2023-03-23T12:01:47;13.90;99.90
40822;DHT22;26542;50.836;5.356;2023-03-23T12:09:48;14.40;99.90
40822;DHT22;26542;50.836;5.356;2023-03-23T12:15:01;14.50;99.90
40822;DHT22;26542;50.836;5.356;2023-03-23T12:20:37;14.50;99.90
40822;DHT22;26542;50.836;5.356;2023-03-23T12:23:19;14.40;99.90
40822;DHT22;26542;50.836;5.356;2023-03-23T12:25:52;14.30;99.90
40822;DHT22;26542;50.836;5.356;2023-03-23T12:30:55;14.00;99.90
40822;DHT22;26542;50.836;5.356;2023-03-23T12:44:09;14.30;99.90
40822;DHT22;26542;50.836;5.356;2023-03-23T12:49:53;14.40;99.90
40822;DHT22;26542;50.836;5.356;2023-03-23T12:52:31;14.40;99.90
40822;DHT22;26542;50.836;5.356;2023-03-23T12:55:06;14.40;99.90
40822;DHT22;26542;50.836;5.356;2023-03-23T12:57:43;14.40;99.90
40822;DHT22;26542;50.836;5.356;2023-03-23T13:03:14;14.80;99.90
40822;DHT22;26542;50.836;5.356;2023-03-23T13:05:51;15.00;99.90
40822;DHT22;26542;50.836;5.356;2023-03-23T13:08:32;15.00;99.90
40822;DHT22;26542;50.836;5.356;2023-03-23T13:11:03;14.90;99.90
40822;DHT22;26542;50.836;5.356;2023-03-23T13:22:19;14.60;99.90
40822;DHT22;26542;50.836;5.356;2023-03-23T13:25:01;14.40;99.90
40822;DHT22;26542;50.836;5.356;2023-03-23T13:27:29;14.40;99.90
40822;DHT22;26542;50.836;5.356;2023-03-23T13:29:58;14.30;99.90
40822;DHT22;26542;50.836;5.356;2023-03-23T13:32:38;14.30;99.90
40822;DHT22;26542;50.836;5.356;2023-03-23T13:35:18;14.20;99.90
40822;DHT22;26542;50.836;5.356;2023-03-23T13:37:48;14.30;99.90
40822;DHT22;26542;50.836;5.356;2023-03-23T13:40:28;14.20;99.90
40822;DHT22;26542;50.836;5.356;2023-03-23T13:42:57;14.10;99.90
40822;DHT22;26542;50.836;5.356;2023-03-23T13:48:05;14.00;99.90
40822;DHT22;26542;50.836;5.356;2023-03-23T13:53:20;14.00;99.90
40822;DHT22;26542;50.836;5.356;2023-03-23T13:56:03;14.20;99.90
40822;DHT22;26542;50.836;5.356;2023-03-23T13:58:30;14.40;99.90
40822;DHT22;26542;50.836;5.356;2023-03-23T14:01:29;14.80;99.90
40822;DHT22;26542;50.836;5.356;2023-03-23T14:03:59;15.20;99.90
40822;DHT22;26542;50.836;5.356;2023-03-23T14:06:33;15.40;99.90
40822;DHT22;26542;50.836;5.356;2023-03-23T14:09:06;15.60;99.90
40822;DHT22;26542;50.836;5.356;2023-03-23T14:11:32;15.80;99.90
40822;DHT22;26542;50.836;5.356;2023-03-23T14:14:07;15.90;99.90
40822;DHT22;26542;50.836;5.356;2023-03-23T14:16:44;16.00;99.90
40822;DHT22;26542;50.836;5.356;2023-03-23T14:19:23;16.00;99.90
40822;DHT22;26542;50.836;5.356;2023-03-23T14:21:55;16.00;99.90
40822;DHT22;26542;50.836;5.356;2023-03-23T14:24:24;15.80;99.90
40822;DHT22;26542;50.836;5.356;2023-03-23T14:26:52;15.80;99.90
40822;DHT22;26542;50.836;5.356;2023-03-23T14:29:20;15.70;99.90
40822;DHT22;26542;50.836;5.356;2023-03-23T14:31:53;15.60;99.90
40822;DHT22;26542;50.836;5.356;2023-03-23T14:34:20;15.60;99.90
40822;DHT22;26542;50.836;5.356;2023-03-23T14:36:47;15.60;99.90
40822;DHT22;26542;50.836;5.356;2023-03-23T14:39:26;15.70;99.90
40822;DHT22;26542;50.836;5.356;2023-03-23T14:41:54;15.80;99.90
40822;DHT22;26542;50.836;5.356;2023-03-23T14:44:26;15.80;99.90
40822;DHT22;26542;50.836;5.356;2023-03-23T14:46:54;15.80;99.90
40822;DHT22;26542;50.836;5.356;2023-03-23T14:49:29;15.90;99.90
40822;DHT22;26542;50.836;5.356;2023-03-23T14:51:55;15.80;99.90
40822;DHT22;26542;50.836;5.356;2023-03-23T14:54:23;15.70;99.90
40822;DHT22;26542;50.836;5.356;2023-03-23T14:56:50;15.70;99.90
40822;DHT22;26542;50.836;5.356;2023-03-23T14:59:16;15.80;99.90
40822;DHT22;26542;50.836;5.356;2023-03-23T15:01:42;15.70;99.90
40822;DHT22;26542;50.836;5.356;2023-03-23T15:04:24;15.60;99.90
40822;DHT22;26542;50.836;5.356;2023-03-23T15:06:59;15.70;99.90
40822;DHT22;26542;50.836;5.356;2023-03-23T15:09:26;15.70;99.90
40822;DHT22;26542;50.836;5.356;2023-03-23T15:12:00;15.80;99.90
40822;DHT22;26542;50.836;5.356;2023-03-23T15:14:32;15.80;99.90
40822;DHT22;26542;50.836;5.356;2023-03-23T15:17:00;15.80;99.90
40822;DHT22;26542;50.836;5.356;2023-03-23T15:19:38;15.80;99.90
40822;DHT22;26542;50.836;5.356;2023-03-23T15:22:21;15.80;99.90
40822;DHT22;26542;50.836;5.356;2023-03-23T15:24:47;15.80;99.90
40822;DHT22;26542;50.836;5.356;2023-03-23T15:27:32;15.70;99.90
40822;DHT22;26542;50.836;5.356;2023-03-23T15:30:00;15.70;99.90
40822;DHT22;26542;50.836;5.356;2023-03-23T15:32:36;15.60;99.90
40822;DHT22;26542;50.836;5.356;2023-03-23T15:35:09;15.50;99.90
40822;DHT22;26542;50.836;5.356;2023-03-23T15:37:43;15.50;99.90
40822;DHT22;26542;50.836;5.356;2023-03-23T15:40:21;15.40;99.90
40822;DHT22;26542;50.836;5.356;2023-03-23T15:42:48;15.50;99.90
40822;DHT22;26542;50.836;5.356;2023-03-23T15:50:13;15.80;99.90
40822;DHT22;26542;50.836;5.356;2023-03-23T15:52:41;15.90;99.90
40822;DHT22;26542;50.836;5.356;2023-03-23T15:55:24;16.00;99.90
40822;DHT22;26542;50.836;5.356;2023-03-23T15:57:50;16.00;99.90
40822;DHT22;26542;50.836;5.356;2023-03-23T16:00:20;15.90;99.90
40822;DHT22;26542;50.836;5.356;2023-03-23T16:02:47;16.00;99.90
40822;DHT22;26542;50.836;5.356;2023-03-23T16:05:15;16.10;99.90
40822;DHT22;26542;50.836;5.356;2023-03-23T16:07:41;16.30;99.90
40822;DHT22;26542;50.836;5.356;2023-03-23T16:10:15;16.20;99.90
40822;DHT22;26542;50.836;5.356;2023-03-23T16:12:41;16.10;99.90
40822;DHT22;26542;50.836;5.356;2023-03-23T16:15:14;16.00;99.90
40822;DHT22;26542;50.836;5.356;2023-03-23T16:17:41;15.90;99.90
40822;DHT22;26542;50.836;5.356;2023-03-23T16:20:24;15.80;99.90
40822;DHT22;26542;50.836;5.356;2023-03-23T16:22:52;15.80;99.90
40822;DHT22;26542;50.836;5.356;2023-03-23T16:25:18;15.70;99.90
40822;DHT22;26542;50.836;5.356;2023-03-23T16:27:44;15.80;99.90
40822;DHT22;26542;50.836;5.356;2023-03-23T16:30:22;15.80;99.90
40822;DHT22;26542;50.836;5.356;2023-03-23T16:32:48;15.80;99.90
40822;DHT22;26542;50.836;5.356;2023-03-23T16:35:14;15.90;99.90
40822;DHT22;26542;50.836;5.356;2023-03-23T16:37:45;16.00;99.90
40822;DHT22;26542;50.836;5.356;2023-03-23T16:40:13;15.90;99.90
40822;DHT22;26542;50.836;5.356;2023-03-23T16:42:39;15.90;99.90
40822;DHT22;26542;50.836;5.356;2023-03-23T16:45:05;15.90;99.90
40822;DHT22;26542;50.836;5.356;2023-03-23T16:47:31;15.90;99.90
40822;DHT22;26542;50.836;5.356;2023-03-23T16:49:57;15.80;99.90
40822;DHT22;26542;50.836;5.356;2023-03-23T16:52:23;15.80;99.90
40822;DHT22;26542;50.836;5.356;2023-03-23T16:54:49;15.70;99.90
40822;DHT22;26542;50.836;5.356;2023-03-23T16:57:15;15.70;99.90
40822;DHT22;26542;50.836;5.356;2023-03-23T16:59:41;15.70;99.90
40822;DHT22;26542;50.836;5.356;2023-03-23T17:02:12;15.60;99.90
40822;DHT22;26542;50.836;5.356;2023-03-23T17:04:44;15.60;99.90
40822;DHT22;26542;50.836;5.356;2023-03-23T17:07:12;15.60;99.90
40822;DHT22;26542;50.836;5.356;2023-03-23T17:09:38;15.60;99.90
40822;DHT22;26542;50.836;5.356;2023-03-23T17:12:04;15.60;99.90
40822;DHT22;26542;50.836;5.356;2023-03-23T17:14:30;15.60;99.90
40822;DHT22;26542;50.836;5.356;2023-03-23T17:16:57;15.60;99.90
40822;DHT22;26542;50.836;5.356;2023-03-23T17:19:23;15.60;99.90
40822;DHT22;26542;50.836;5.356;2023-03-23T17:21:49;15.60;99.90
40822;DHT22;26542;50.836;5.356;2023-03-23T17:24:16;15.70;99.90
40822;DHT22;26542;50.836;5.356;2023-03-23T17:26:41;15.70;99.90
40822;DHT22;26542;50.836;5.356;2023-03-23T17:29:07;15.70;99.90